createdAt,value
2019-05-19T00:01:11.063Z,99425.15
2019-05-19T00:04:01.339Z,99423.23
2019-05-19T00:06:51.063Z,99416.73
2019-05-19T00:09:40.776Z,99421.09
2019-05-19T00:12:30.537Z,99415.39
2019-05-19T00:15:20.565Z,99415.14
2019-05-19T00:18:10.823Z,99412.14
2019-05-19T00:21:00.799Z,99412.97
2019-05-19T00:23:51.163Z,99410.83
2019-05-19T00:26:41.098Z,99411.91
2019-05-19T00:29:31.361Z,99410.27
2019-05-19T00:32:21.922Z,99404.58
2019-05-19T00:35:11.692Z,99407.85
2019-05-19T00:38:01.314Z,99403.24
2019-05-19T00:40:51.408Z,99403.55
2019-05-19T00:43:41.454Z,99398.66
2019-05-19T00:46:31.818Z,99440.00
2019-05-19T00:49:21.722Z,99401.69
2019-05-19T00:52:11.531Z,99404.69
2019-05-19T00:55:00.994Z,99394.91
2019-05-19T00:57:51.146Z,99394.66
2019-05-19T01:00:41.281Z,99393.02
2019-05-19T01:03:31.186Z,99388.95
2019-05-19T01:06:21.375Z,99393.86
2019-05-19T01:09:11.405Z,99394.14
2019-05-19T01:12:01.583Z,99392.50
2019-05-19T01:14:50.957Z,99389.78
2019-05-19T01:17:40.696Z,99394.16
2019-05-19T01:20:31.268Z,99391.45
2019-05-19T01:23:20.907Z,99387.38
2019-05-19T01:26:10.767Z,99384.11
2019-05-19T01:29:00.464Z,99383.05
2019-05-19T01:31:50.241Z,99384.66
2019-05-19T01:34:40.233Z,99381.13
2019-05-19T01:37:29.974Z,99383.84
2019-05-19T01:40:19.850Z,99385.48
2019-05-19T01:43:10.391Z,99377.88
2019-05-19T01:46:00.174Z,99381.16
2019-05-19T01:48:50.227Z,99379.23
2019-05-19T01:51:40.826Z,99381.16
2019-05-19T01:54:30.362Z,99380.33
2019-05-19T01:57:19.895Z,99381.94
2019-05-19T02:00:10.885Z,99385.47
2019-05-19T02:03:00.183Z,99378.67
2019-05-19T02:05:50.445Z,99369.41
2019-05-19T02:08:40.622Z,99373.23
2019-05-19T02:11:30.624Z,99374.31
2019-05-19T02:14:20.824Z,99179.67
2019-05-19T02:17:10.593Z,99381.94
2019-05-19T02:20:00.589Z,99381.94
2019-05-19T02:22:50.703Z,99380.86
2019-05-19T02:25:40.780Z,99375.97
2019-05-19T02:28:30.961Z,99382.22
2019-05-19T02:31:20.333Z,99378.97
2019-05-19T02:34:09.708Z,99376.52
2019-05-19T02:36:59.483Z,99377.86
2019-05-19T02:39:49.607Z,99377.06
2019-05-19T02:42:43.063Z,99379.25
2019-05-19T02:45:36.264Z,99382.22
2019-05-19T02:48:28.652Z,99382.77
2019-05-19T02:51:19.447Z,99384.69
2019-05-19T02:54:10.169Z,99381.98
2019-05-19T02:57:02.937Z,99378.45
2019-05-19T02:59:53.800Z,99378.75
2019-05-19T03:02:43.794Z,99381.76
2019-05-19T03:05:33.655Z,99383.95
2019-05-19T03:08:23.825Z,99382.88
2019-05-19T03:11:13.480Z,99381.25
2019-05-19T03:14:03.682Z,99381.25
2019-05-19T03:16:53.306Z,99381.28
2019-05-19T03:19:43.033Z,99378.57
2019-05-19T03:22:33.280Z,99382.11
2019-05-19T03:25:23.571Z,99386.19
2019-05-19T03:28:13.151Z,99379.67
2019-05-19T03:31:13.851Z,99379.14
2019-05-19T03:34:03.842Z,99382.39
2019-05-19T03:36:54.334Z,99379.14
2019-05-19T03:39:44.502Z,99379.95
2019-05-19T03:42:34.496Z,99378.59
2019-05-19T03:45:24.408Z,99378.85
2019-05-19T03:48:14.806Z,99376.95
2019-05-19T03:51:04.634Z,99383.46
2019-05-19T03:53:54.876Z,99378.86
2019-05-19T03:56:44.465Z,99377.50
2019-05-19T03:59:35.255Z,99379.67
2019-05-19T04:02:25.446Z,99384.00
2019-05-19T04:05:16.155Z,99377.75
2019-05-19T04:08:06.334Z,99381.82
2019-05-19T04:10:56.444Z,99381.53
2019-05-19T04:13:46.225Z,99381.25
2019-05-19T04:16:36.505Z,99374.98
2019-05-19T04:19:26.140Z,99374.44
2019-05-19T04:22:15.927Z,99373.61
2019-05-19T04:25:07.412Z,99374.13
2019-05-19T04:27:57.478Z,99378.16
2019-05-19T04:30:47.549Z,99378.15
2019-05-19T04:33:37.903Z,99379.81
2019-05-19T04:36:27.762Z,99389.80
2019-05-19T04:39:17.901Z,99383.52
2019-05-19T04:42:08.106Z,99386.48
2019-05-19T04:44:58.123Z,99379.91
2019-05-19T04:47:48.202Z,99389.64
2019-05-19T04:50:38.263Z,99389.30
2019-05-19T04:53:28.404Z,99382.16
2019-05-19T04:56:19.803Z,99384.25
2019-05-19T04:59:10.406Z,99378.73
2019-05-19T05:02:00.407Z,99379.47
2019-05-19T05:04:51.798Z,99377.75
2019-05-19T05:07:41.846Z,99383.33
2019-05-19T05:10:31.351Z,99390.27
2019-05-19T05:13:21.286Z,99389.34
2019-05-19T05:16:11.380Z,99393.25
2019-05-19T05:19:01.154Z,99381.97
2019-05-19T05:21:51.429Z,99379.63
2019-05-19T05:24:41.254Z,99386.07
2019-05-19T05:27:31.199Z,99386.69
2019-05-19T05:30:21.712Z,99388.63
2019-05-19T05:33:11.494Z,99392.22
2019-05-19T05:36:01.681Z,99387.59
2019-05-19T05:38:51.656Z,99386.48
2019-05-19T05:41:41.523Z,99388.72
2019-05-19T05:44:31.608Z,99386.88
2019-05-19T05:47:21.710Z,99383.33
2019-05-19T05:50:11.409Z,99381.44
2019-05-19T05:53:01.159Z,99383.46
2019-05-19T05:55:50.984Z,99386.44
2019-05-19T05:58:41.301Z,99386.70
2019-05-19T06:01:31.113Z,99380.13
2019-05-19T06:04:21.288Z,99377.94
2019-05-19T06:07:11.494Z,99384.31
2019-05-19T06:10:01.787Z,99387.30
2019-05-19T06:12:54.868Z,99384.34
2019-05-19T06:15:44.357Z,99392.75
2019-05-19T06:18:34.488Z,99387.03
2019-05-19T06:21:24.453Z,99385.29
2019-05-19T06:24:14.691Z,99380.56
2019-05-19T06:27:04.813Z,99379.19
2019-05-19T06:29:54.543Z,99376.69
2019-05-19T06:32:48.220Z,99378.30
2019-05-19T06:35:38.357Z,99377.14
2019-05-19T06:38:28.276Z,99367.18
2019-05-19T06:41:18.368Z,99372.77
2019-05-19T06:44:09.053Z,99377.79
2019-05-19T06:46:58.839Z,99368.33
2019-05-19T06:49:48.771Z,99363.95
2019-05-19T06:52:38.868Z,99372.66
2019-05-19T06:55:28.605Z,99367.83
2019-05-19T06:58:18.573Z,99367.04
2019-05-19T07:01:08.831Z,99363.98
2019-05-19T07:03:59.075Z,99370.50
2019-05-19T07:06:49.245Z,99369.23
2019-05-19T07:09:39.128Z,99367.99
2019-05-19T07:12:29.907Z,99362.51
2019-05-19T07:15:20.301Z,99354.57
2019-05-19T07:18:09.888Z,99352.86
2019-05-19T07:20:59.571Z,99346.77
2019-05-19T07:23:49.054Z,99346.43
2019-05-19T07:26:38.551Z,99344.45
2019-05-19T07:29:28.568Z,99341.86
2019-05-19T07:32:18.691Z,99347.67
2019-05-19T07:35:09.010Z,99338.27
2019-05-19T07:37:58.874Z,99339.71
2019-05-19T07:40:48.697Z,99329.83
2019-05-19T07:43:38.854Z,99337.99
2019-05-19T07:46:28.772Z,99342.34
2019-05-19T07:49:18.491Z,99333.16
2019-05-19T07:52:08.760Z,99335.41
2019-05-19T07:54:59.243Z,99336.83
2019-05-19T07:57:49.080Z,99335.06
2019-05-19T08:00:38.577Z,99332.55
2019-05-19T08:03:28.294Z,99339.94
2019-05-19T08:06:18.468Z,99328.20
2019-05-19T08:09:08.530Z,99323.36
2019-05-19T08:11:58.341Z,99323.73
2019-05-19T08:14:48.420Z,99325.66
2019-05-19T08:17:38.380Z,99325.30
2019-05-19T08:20:28.532Z,99323.67
2019-05-19T08:23:18.700Z,99328.84
2019-05-19T08:26:08.525Z,99323.32
2019-05-19T08:28:58.432Z,99321.61
2019-05-19T08:31:49.706Z,99316.22
2019-05-19T08:34:39.822Z,99320.27
2019-05-19T08:37:29.895Z,99316.11
2019-05-19T08:40:19.967Z,99314.84
2019-05-19T08:43:10.375Z,99312.56
2019-05-19T08:46:00.535Z,99310.94
2019-05-19T08:48:50.750Z,99315.99
2019-05-19T08:51:40.640Z,99312.19
2019-05-19T08:54:30.265Z,99318.09
2019-05-19T08:57:20.161Z,99309.14
2019-05-19T09:00:12.056Z,99314.87
2019-05-19T09:03:03.200Z,99313.13
2019-05-19T09:05:52.896Z,99311.74
2019-05-19T09:08:42.873Z,99314.97
2019-05-19T09:11:33.158Z,99306.20
2019-05-19T09:14:23.172Z,99307.59
2019-05-19T09:17:13.436Z,99307.52
2019-05-19T09:20:04.022Z,99306.50
2019-05-19T09:22:53.821Z,99310.80
2019-05-19T09:25:44.321Z,99306.78
2019-05-19T09:28:34.795Z,99301.23
2019-05-19T09:31:25.092Z,99297.77
2019-05-19T09:34:15.520Z,99299.52
2019-05-19T09:37:05.864Z,99297.63
2019-05-19T09:39:57.230Z,99298.89
2019-05-19T09:42:47.515Z,99302.58
2019-05-19T09:45:37.850Z,99302.02
2019-05-19T09:48:28.289Z,99301.06
2019-05-19T09:51:18.297Z,99296.70
2019-05-19T09:54:08.400Z,99304.34
2019-05-19T09:56:58.769Z,99299.37
2019-05-19T09:59:49.261Z,99298.05
2019-05-19T10:02:39.491Z,99291.14
2019-05-19T10:05:29.701Z,99285.94
2019-05-19T10:08:26.914Z,99284.16
2019-05-19T10:11:45.617Z,99280.99
2019-05-19T10:14:35.576Z,99284.47
2019-05-19T10:17:25.687Z,99280.66
2019-05-19T10:20:18.081Z,99281.62
2019-05-19T10:23:08.213Z,99277.83
2019-05-19T10:25:58.418Z,99278.63
2019-05-19T10:28:48.207Z,99269.37
2019-05-19T10:31:38.738Z,99261.05
2019-05-19T10:34:29.053Z,99260.27
2019-05-19T10:37:19.000Z,99263.26
2019-05-19T10:40:10.117Z,99257.58
2019-05-19T10:43:01.725Z,99253.78
2019-05-19T10:46:01.665Z,99250.69
2019-05-19T10:48:51.770Z,99253.70
2019-05-19T10:51:42.357Z,99258.32
2019-05-19T10:54:32.086Z,99260.84
2019-05-19T10:57:26.888Z,99262.07
2019-05-19T11:00:17.486Z,99258.08
2019-05-19T11:03:07.631Z,99255.05
2019-05-19T11:05:57.846Z,99256.63
2019-05-19T11:08:48.999Z,99250.84
2019-05-19T11:11:39.450Z,99250.25
2019-05-19T11:14:29.434Z,99250.05
2019-05-19T11:17:19.859Z,99245.66
2019-05-19T11:20:10.280Z,99247.86
2019-05-19T11:23:02.052Z,99252.02
2019-05-19T11:25:52.329Z,99246.73
2019-05-19T11:28:43.501Z,99238.69
2019-05-19T11:31:33.428Z,99237.09
2019-05-19T11:34:23.532Z,99243.80
2019-05-19T11:37:13.383Z,99237.66
2019-05-19T11:40:03.927Z,99238.76
2019-05-19T11:42:55.286Z,99231.17
2019-05-19T11:45:44.561Z,99240.16
2019-05-19T11:48:34.549Z,99239.04
2019-05-19T11:51:24.948Z,99236.33
2019-05-19T11:54:15.609Z,99232.41
2019-05-19T11:57:05.699Z,99228.48
2019-05-19T11:59:55.747Z,99233.03
2019-05-19T12:02:45.798Z,99223.95
2019-05-19T12:05:36.108Z,99219.18
2019-05-19T12:08:26.700Z,99226.53
2019-05-19T12:11:17.022Z,99220.09
2019-05-19T12:14:07.347Z,99220.39
2019-05-19T12:16:57.195Z,99218.75
2019-05-19T12:19:47.629Z,99214.31
2019-05-19T12:22:37.679Z,99215.86
2019-05-19T12:25:29.113Z,99220.89
2019-05-19T12:28:19.303Z,99218.91
2019-05-19T12:31:09.347Z,99216.31
2019-05-19T12:33:59.654Z,99213.89
2019-05-19T12:36:50.221Z,99220.47
2019-05-19T12:39:40.608Z,99220.38
2019-05-19T12:42:31.225Z,99212.72
2019-05-19T12:45:22.548Z,99209.18
2019-05-19T12:48:12.919Z,99209.20
2019-05-19T12:51:03.020Z,99204.53
2019-05-19T12:53:53.209Z,99203.44
2019-05-19T12:56:42.917Z,99203.39
2019-05-19T12:59:33.257Z,99200.25
2019-05-19T13:02:23.085Z,99208.51
2019-05-19T13:05:13.994Z,99198.63
2019-05-19T13:08:04.078Z,99196.33
2019-05-19T13:10:54.104Z,99192.32
2019-05-19T13:13:44.121Z,99191.64
2019-05-19T13:16:34.732Z,99192.24
2019-05-19T13:19:24.694Z,99188.81
2019-05-19T13:22:14.509Z,99189.80
2019-05-19T13:25:04.407Z,99179.38
2019-05-19T13:27:54.183Z,99186.63
2019-05-19T13:30:44.366Z,99186.44
2019-05-19T13:33:34.322Z,99188.36
2019-05-19T13:36:24.032Z,99190.09
2019-05-19T13:39:13.676Z,99176.37
2019-05-19T13:42:04.436Z,99171.76
2019-05-19T13:44:54.610Z,99169.14
2019-05-19T13:47:44.347Z,99162.94
2019-05-19T13:50:35.664Z,99165.23
2019-05-19T13:53:25.692Z,99166.47
2019-05-19T13:56:15.799Z,99158.46
2019-05-19T13:59:05.843Z,99162.70
2019-05-19T14:01:55.324Z,99164.95
2019-05-19T14:04:45.187Z,99162.56
2019-05-19T14:07:35.386Z,99164.41
2019-05-19T14:10:25.158Z,99166.37
2019-05-19T14:13:15.160Z,99153.13
2019-05-19T14:16:06.006Z,99149.30
2019-05-19T14:18:55.640Z,99153.77
2019-05-19T14:21:45.799Z,99148.77
2019-05-19T14:24:35.679Z,99148.70
2019-05-19T14:27:30.333Z,99139.37
2019-05-19T14:30:17.367Z,99137.84
2019-05-19T14:33:07.377Z,99139.03
2019-05-19T14:35:57.925Z,99134.27
2019-05-19T14:39:05.476Z,99131.70
2019-05-19T14:41:57.515Z,99142.22
2019-05-19T14:44:46.826Z,99131.25
2019-05-19T14:47:36.870Z,99133.39
2019-05-19T14:50:28.005Z,99126.13
2019-05-19T14:53:18.093Z,99126.61
2019-05-19T14:56:07.943Z,99135.79
2019-05-19T14:58:58.053Z,99131.09
2019-05-19T15:01:47.529Z,99124.87
2019-05-19T15:04:37.525Z,99126.54
2019-05-19T15:07:27.594Z,99125.13
2019-05-19T15:10:18.173Z,99126.77
2019-05-19T15:13:07.930Z,99119.17
2019-05-19T15:15:59.798Z,99123.73
2019-05-19T15:18:49.645Z,99123.84
2019-05-19T15:21:39.617Z,99126.98
2019-05-19T15:24:29.740Z,99117.78
2019-05-19T15:27:19.950Z,99122.38
2019-05-19T15:30:13.978Z,99115.28
2019-05-19T15:33:10.982Z,99110.59
2019-05-19T15:36:00.712Z,99111.02
2019-05-19T15:39:02.904Z,99107.75
2019-05-19T15:41:52.869Z,99104.91
2019-05-19T15:44:42.697Z,99103.96
2019-05-19T15:47:32.456Z,99102.57
2019-05-19T15:50:23.516Z,99091.20
2019-05-19T15:53:13.731Z,99095.48
2019-05-19T15:56:03.748Z,99099.07
2019-05-19T15:58:53.867Z,99094.91
2019-05-19T16:01:43.661Z,99091.91
2019-05-19T16:04:33.631Z,99091.25
2019-05-19T16:07:24.397Z,99085.27
2019-05-19T16:10:15.324Z,99082.07
2019-05-19T16:13:06.141Z,99082.30
2019-05-19T16:15:55.976Z,99080.48
2019-05-19T16:18:45.858Z,99084.85
2019-05-19T16:21:35.958Z,99081.27
2019-05-19T16:24:25.499Z,99080.69
2019-05-19T16:27:15.374Z,99078.03
2019-05-19T16:30:05.630Z,99073.95
2019-05-19T16:32:55.248Z,99075.69
2019-05-19T16:35:45.109Z,99080.94
2019-05-19T16:38:34.882Z,99081.67
2019-05-19T16:41:24.813Z,99073.50
2019-05-19T16:44:14.306Z,99070.49
2019-05-19T16:47:04.471Z,99069.91
2019-05-19T16:49:54.708Z,99068.17
2019-05-19T16:52:44.907Z,99062.63
2019-05-19T16:55:35.238Z,99057.50
2019-05-19T16:58:25.354Z,99070.41
2019-05-19T17:01:16.065Z,99068.22
2019-05-19T17:04:06.190Z,99067.21
2019-05-19T17:06:56.207Z,99067.41
2019-05-19T17:09:46.364Z,99064.36
2019-05-19T17:12:36.263Z,99061.74
2019-05-19T17:15:26.389Z,99067.83
2019-05-19T17:18:16.657Z,99064.20
2019-05-19T17:21:06.537Z,99058.39
2019-05-19T17:23:56.539Z,99064.09
2019-05-19T17:26:46.817Z,99060.47
2019-05-19T17:29:36.485Z,99065.52
2019-05-19T17:32:26.258Z,99066.39
2019-05-19T17:35:16.950Z,99067.73
2019-05-19T17:38:06.584Z,99075.20
2019-05-19T17:40:56.771Z,99077.70
2019-05-19T17:43:46.053Z,99071.49
2019-05-19T17:46:36.243Z,99070.64
2019-05-19T17:49:26.490Z,99074.34
2019-05-19T17:52:16.300Z,99075.06
2019-05-19T17:55:06.737Z,99085.30
2019-05-19T17:57:59.004Z,99090.56
2019-05-19T18:00:48.359Z,99086.32
2019-05-19T18:03:39.916Z,99088.23
2019-05-19T18:06:29.933Z,99087.57
2019-05-19T18:09:19.081Z,99081.97
2019-05-19T18:12:08.855Z,99084.66
2019-05-19T18:14:59.041Z,99084.61
2019-05-19T18:17:49.170Z,99082.79
2019-05-19T18:20:39.173Z,99088.05
2019-05-19T18:23:29.366Z,99079.45
2019-05-19T18:26:19.063Z,99086.08
2019-05-19T18:29:10.019Z,99086.37
2019-05-19T18:32:00.584Z,99087.47
2019-05-19T18:34:50.536Z,99088.67
2019-05-19T18:37:40.788Z,99088.09
2019-05-19T18:40:30.518Z,99085.53
2019-05-19T18:43:20.725Z,99084.51
2019-05-19T18:46:10.888Z,99087.83
2019-05-19T18:49:00.887Z,99089.56
2019-05-19T18:51:50.698Z,99089.44
2019-05-19T18:54:40.350Z,99087.70
2019-05-19T18:57:30.364Z,99092.32
2019-05-19T19:00:39.612Z,99091.16
2019-05-19T19:03:29.705Z,99090.22
2019-05-19T19:06:20.186Z,99092.13
2019-05-19T19:09:10.247Z,99091.67
2019-05-19T19:12:00.152Z,99092.78
2019-05-19T19:14:50.159Z,99092.86
2019-05-19T19:17:40.370Z,99092.55
2019-05-19T19:20:30.594Z,99103.52
2019-05-19T19:23:21.331Z,99110.34
2019-05-19T19:26:11.177Z,99112.67
2019-05-19T19:29:00.847Z,99111.16
2019-05-19T19:31:51.201Z,99109.89
2019-05-19T19:34:41.782Z,99113.34
2019-05-19T19:37:32.051Z,99118.70
2019-05-19T19:40:32.282Z,99119.02
2019-05-19T19:43:21.835Z,99122.88
2019-05-19T19:46:11.467Z,99127.67
2019-05-19T19:49:00.811Z,99129.91
2019-05-19T19:51:50.835Z,99131.47
2019-05-19T19:54:40.584Z,99126.35
2019-05-19T19:57:30.686Z,99132.56
2019-05-19T20:00:41.245Z,99123.42
2019-05-19T20:03:30.735Z,99129.34
2019-05-19T20:06:20.569Z,99125.34
2019-05-19T20:09:10.679Z,99125.19
2019-05-19T20:12:00.274Z,99126.94
2019-05-19T20:14:50.233Z,99123.77
2019-05-19T20:17:41.851Z,99123.85
2019-05-19T20:20:31.857Z,99129.48
2019-05-19T20:23:21.891Z,99125.50
2019-05-19T20:26:11.711Z,99124.81
2019-05-19T20:29:01.586Z,99131.24
2019-05-19T20:31:51.573Z,99125.05
2019-05-19T20:34:41.971Z,99125.64
2019-05-19T20:37:31.955Z,99119.64
2019-05-19T20:40:21.550Z,99123.44
2019-05-19T20:43:11.036Z,99125.39
2019-05-19T20:46:01.384Z,99125.97
2019-05-19T20:48:51.633Z,99117.52
2019-05-19T20:51:41.704Z,99113.17
2019-05-19T20:54:31.352Z,99116.87
2019-05-19T20:57:22.016Z,99118.73
2019-05-19T21:00:12.062Z,99110.96
2019-05-19T21:03:01.681Z,99117.01
2019-05-19T21:05:51.448Z,99112.53
2019-05-19T21:08:41.295Z,99116.34
2019-05-19T21:11:31.703Z,99112.45
2019-05-19T21:14:24.578Z,99115.83
2019-05-19T21:17:14.236Z,99118.00
2019-05-19T21:20:06.701Z,99114.66
2019-05-19T21:22:58.765Z,99113.90
2019-05-19T21:25:49.000Z,99116.62
2019-05-19T21:28:39.024Z,99119.01
2019-05-19T21:31:29.149Z,99124.69
2019-05-19T21:34:19.456Z,99118.86
2019-05-19T21:37:10.023Z,99114.36
2019-05-19T21:39:59.682Z,99115.08
2019-05-19T21:42:49.603Z,99121.24
2019-05-19T21:45:39.936Z,99109.64
2019-05-19T21:48:34.577Z,99117.66
2019-05-19T21:51:24.488Z,99119.84
2019-05-19T21:54:14.445Z,99119.84
2019-05-19T21:57:04.760Z,99116.48
2019-05-19T21:59:54.463Z,99113.84
2019-05-19T22:02:45.772Z,99110.97
2019-05-19T22:05:35.729Z,99107.61
2019-05-19T22:08:27.299Z,99117.63
2019-05-19T22:11:17.275Z,99110.41
2019-05-19T22:14:07.364Z,99107.83
2019-05-19T22:16:57.517Z,99115.76
2019-05-19T22:19:47.241Z,99112.36
2019-05-19T22:22:38.516Z,99111.58
2019-05-19T22:25:28.543Z,99117.36
2019-05-19T22:28:18.448Z,99115.43
2019-05-19T22:31:08.256Z,99119.28
2019-05-19T22:33:58.460Z,99113.09
2019-05-19T22:36:48.542Z,99121.05
2019-05-19T22:39:38.924Z,99124.34
2019-05-19T22:42:28.849Z,99116.45
2019-05-19T22:45:18.869Z,99118.11
2019-05-19T22:48:09.284Z,99113.70
2019-05-19T22:50:59.480Z,99106.34
2019-05-19T22:53:50.018Z,99101.16
2019-05-19T22:56:40.212Z,99095.84
2019-05-19T22:59:29.927Z,99096.88
2019-05-19T23:02:20.948Z,99098.66
2019-05-19T23:05:11.463Z,99099.57
2019-05-19T23:08:01.602Z,99097.58
2019-05-19T23:10:51.469Z,99098.33
2019-05-19T23:13:41.424Z,99099.78
2019-05-19T23:16:31.831Z,99097.23
2019-05-19T23:19:22.433Z,99090.05
2019-05-19T23:22:11.899Z,99086.67
2019-05-19T23:25:02.396Z,99091.83
2019-05-19T23:27:52.684Z,99088.28
2019-05-19T23:30:42.880Z,99090.46
2019-05-19T23:33:33.651Z,99099.50
2019-05-19T23:36:23.950Z,99099.50
2019-05-19T23:39:13.956Z,99109.09
2019-05-19T23:42:03.944Z,99104.72
2019-05-19T23:44:54.225Z,99101.50
2019-05-19T23:47:43.680Z,99099.89
2019-05-19T23:50:34.098Z,99104.30
2019-05-19T23:53:24.178Z,99095.59
2019-05-19T23:56:13.858Z,99098.41
2019-05-19T23:59:05.453Z,99103.08
